Beverly Hills, CA (90210)

5:24 AM PDT on October 01, 2014 (GMT -0700)
Hollywood Hills | Change Station
CLOSE
Current Station
Personal Weather Station
Location: Los Angeles, CA
Elevation: 636 ft
Nearby Weather Stations
Active Advisory: Special Statement

Elev 636 ft 34.10 °N, 118.38 °W | Updated 23 minutes ago

Clear
Clear
63.1 °F
Feels Like 63.1 °F
N
0.0
Wind Variable Wind from WSW
Gusts 13.0 mph

Today
High -- | Low -- °F
--% Chance of Precip.
Yesterday
High -- | Low -- °F
Precip. -- in
6:48 AM 6:37 PM
Waxing Crescent, 47% visible
Pressure 29.76 in
Visibility 10.0 miles
Clouds Few 1300 ft
Dew Point 60 °F
Humidity 90%
Rainfall 0.00 in
Snow Depth 1 in , 0 in , 0 in
UV 0.0 out of 12
Pollen 5.50 out of 12
Ozone Good
Flu Activity Not available.
METAR KSMO 011051Z AUTO 00000KT 10SM FEW013 18/15 A2977 RMK AO2 SLP077 T01780150 $

More Conditions Fewer Conditions

Pressure 29.76 in
Visibility 10.0 miles
Clouds Few 1300 ft
Dew Point 60 °F
Humidity 90%
Rainfall 0.00 in
Snow Depth 1 in , 0 in , 0 in
UV 0.0 out of 12
Pollen 5.50 out of 12
Ozone Good
Flu Activity Not available.
METAR KSMO 011051Z AUTO 00000KT 10SM FEW013 18/15 A2977 RMK AO2 SLP077 T01780150 $

More Conditions Fewer Conditions

10-Day Weather Forecast

Almanac

Astronomy

Oct. 01, 2014 Rise Set
Actual Time 6:48 AM PDT 6:37 PM PDT
Civil Twilight 6:23 AM PDT 7:02 PM PDT
Nautical Twilight 5:54 AM PDT 7:31 PM PDT
Astronomical Twilight 5:25 AM PDT 8:00 PM PDT
Moon 1:42 PM PDT No Moon Set
Length of Visible Light 12h 39m
Length of Day
11h 49m
Tomorrow will be 2m 6s shorter.
Waxing Crescent, 47% of the Moon is Illuminated
Today
Waxing Crescent
Oct 1
First Quarter
Oct 8
Full
Oct 15
Last Quarter
Oct 23
New

Today's Extremes

State Highs State Lows

Community

WunderPhotos

Upload Photos

1,757,916 photos uploaded!

Nearby

Air Quality

  Air Quality AQ Index Pollutant
Yesterday Good
OZONE
Current Good
OZONE
Wednesday Good
PM10
Wednesday Good
OZONE
Wednesday Good
CO
Wednesday Good
NO2

Snow Depth

Station Depth Elevation
Spratt Creek 1 in 6200 ft
Crowder Flat 0 in 5100 ft
Leavitt Meadows 0 in 7200 ft
Rubicon #2 1 in 7500 ft
Independence Camp 0 in 7000 ft

Earthquake Activity

City Distance Mag. Time & Date
Shandon, California 159 miles 2.9 5:34 PM PDT
2014-09-30
Avalon, California 70 miles 2.6 1:28 PM PDT
2014-09-30
Minimum magnitude displayed is 2.5.

Coastal Water Temperatures

Place Temperature
Santa Monica Pier 69.1 °F
Los Angeles, CA 66.9 °F
La Jolla, CA 71.1 °F

Nearby Weather Stations